Time;durP1;ratioP1;P1;durP2;ratioP2;P2;SDS_P1;SDS_P2;PMS_P1;PMS_P2;Temp;Humidity;BMP_temperature;BMP_pressure;BME280_temperature;BME280_humidity;BME280_pressure;Samples;Min_cycle;Max_cycle;Signal;HPM_P1;HPM_P2
2023/09/21 04:55:31;;;;;;;2.85;2.35;;;;;;;;;;5118010;27;20392;-84
2023/09/21 04:57:57;;;;;;;2.67;2.10;;;;;;;;;;5114763;28;20028;-85
2023/09/21 05:00:23;;;;;;;2.63;1.92;;;;;;;;;;5110129;28;20034;-84
2023/09/21 05:02:50;;;;;;;3.10;1.90;;;;;;;;;;5109408;28;20020;-85
2023/09/21 05:05:17;;;;;;;2.40;1.77;;;;;;;;;;5115771;28;20015;-85
2023/09/21 05:07:42;;;;;;;9.65;2.38;;;;;;;;;;5119146;28;20106;-83
2023/09/21 05:10:11;;;;;;;2.22;1.83;;;;;;;;;;5115332;27;20432;-86
2023/09/21 05:12:37;;;;;;;3.87;1.70;;;;;;;;;;5114500;28;20050;-84
2023/09/21 05:15:07;;;;;;;2.20;1.58;;;;;;;;;;5109827;28;20020;-83
2023/09/21 05:17:32;;;;;;;;;;;;;;;;;;5119128;28;20031;-84
2023/09/21 05:19:58;;;;;;;3.05;2.67;;;;;;;;;;5108898;28;20252;-84
2023/09/21 05:22:23;;;;;;;3.55;2.22;;;;;;;;;;5105547;28;20027;-83
2023/09/21 05:24:49;;;;;;;3.45;2.55;;;;;;;;;;5107434;28;20023;-83
2023/09/21 05:27:14;;;;;;;3.00;2.60;;;;;;;;;;5107827;28;20034;-84
2023/09/21 05:29:40;;;;;;;3.10;1.95;;;;;;;;;;5114634;28;20028;-84
2023/09/21 05:32:06;;;;;;;4.07;2.72;;;;;;;;;;5108121;28;20024;-78
2023/09/21 05:34:32;;;;;;;2.80;2.53;;;;;;;;;;5113422;28;21733;-83
2023/09/21 05:36:57;;;;;;;3.13;2.15;;;;;;;;;;5110726;28;20365;-83
2023/09/21 05:39:23;;;;;;;3.60;2.20;;;;;;;;;;5113952;27;20030;-83
2023/09/21 05:41:55;;;;;;;3.63;2.33;;;;;;;;;;5106519;28;20027;-82
2023/09/21 05:44:25;;;;;;;10.98;2.47;;;;;;;;;;5112383;28;20149;-83
2023/09/21 05:46:51;;;;;;;3.80;2.17;;;;;;;;;;5111289;28;20126;-84
2023/09/21 05:49:23;;;;;;;1.98;1.67;;;;;;;;;;5114695;28;20031;-83
2023/09/21 05:51:52;;;;;;;2.60;1.90;;;;;;;;;;5110963;28;20028;-87
2023/09/21 05:54:20;;;;;;;2.85;2.05;;;;;;;;;;5112547;28;20082;-84
2023/09/21 05:56:46;;;;;;;2.30;1.90;;;;;;;;;;5107323;28;20039;-85
2023/09/21 05:59:11;;;;;;;1.67;1.38;;;;;;;;;;5112048;28;20392;-85
2023/09/21 06:01:37;;;;;;;3.15;2.08;;;;;;;;;;5108255;28;20150;-85
2023/09/21 06:04:02;;;;;;;1.48;1.35;;;;;;;;;;5116296;28;20034;-84
2023/09/21 06:06:31;;;;;;;5.97;1.90;;;;;;;;;;5101609;28;20372;-85
2023/09/21 06:08:57;;;;;;;6.30;2.97;;;;;;;;;;5100118;28;20028;-82
2023/09/21 06:11:26;;;;;;;2.40;1.67;;;;;;;;;;5103210;28;20046;-84
2023/09/21 06:13:55;;;;;;;2.08;1.42;;;;;;;;;;5094691;28;20030;-85
2023/09/21 06:16:21;;;;;;;2.70;1.98;;;;;;;;;;5098737;28;20033;-82
2023/09/21 06:18:48;;;;;;;3.35;2.03;;;;;;;;;;5097343;28;20108;-86
2023/09/21 06:21:15;;;;;;;2.67;1.88;;;;;;;;;;5089354;28;20027;-85
2023/09/21 06:23:44;;;;;;;2.75;1.90;;;;;;;;;;5096351;28;20071;-85
2023/09/21 06:26:14;;;;;;;2.08;1.33;;;;;;;;;;5092800;28;20380;-85
2023/09/21 06:28:49;;;;;;;2.17;1.77;;;;;;;;;;5089416;28;20055;-85
2023/09/21 06:31:20;;;;;;;2.10;1.80;;;;;;;;;;5089086;28;20028;-85
2023/09/21 06:33:46;;;;;;;1.33;1.17;;;;;;;;;;5091809;28;20024;-86
2023/09/21 06:36:20;;;;;;;1.75;1.45;;;;;;;;;;5094613;28;20034;-85
2023/09/21 06:38:47;;;;;;;1.92;1.40;;;;;;;;;;5094146;28;20487;-84
2023/09/21 06:41:15;;;;;;;3.10;1.48;;;;;;;;;;5087940;28;20028;-84
2023/09/21 06:43:44;;;;;;;4.65;1.95;;;;;;;;;;5093676;28;20379;-84
2023/09/21 06:46:10;;;;;;;3.22;2.42;;;;;;;;;;5093135;28;20059;-85
2023/09/21 06:48:36;;;;;;;5.30;2.13;;;;;;;;;;5090388;28;20032;-85
2023/09/21 06:51:03;;;;;;;3.65;1.92;;;;;;;;;;5093452;28;20062;-83
2023/09/21 06:53:29;;;;;;;4.15;2.50;;;;;;;;;;5099671;28;20499;-79
2023/09/21 06:55:55;;;;;;;2.53;1.83;;;;;;;;;;5100843;28;20081;-85
2023/09/21 06:58:21;;;;;;;3.83;2.72;;;;;;;;;;5094236;28;20028;-84
2023/09/21 07:00:46;;;;;;;2.60;1.85;;;;;;;;;;5100104;28;20038;-85
2023/09/21 07:03:12;;;;;;;4.97;2.20;;;;;;;;;;5101859;28;20034;-86
2023/09/21 07:05:40;;;;;;;1.75;1.23;;;;;;;;;;5091339;28;20024;-86
2023/09/21 07:08:06;;;;;;;5.35;2.78;;;;;;;;;;5101556;28;20441;-85
2023/09/21 07:10:32;;;;;;;4.25;2.50;;;;;;;;;;5102263;28;20114;-84
2023/09/21 07:12:58;;;;;;;3.05;2.13;;;;;;;;;;5102792;28;20032;-85
2023/09/21 07:15:23;;;;;;;2.33;1.77;;;;;;;;;;5100051;28;20020;-85
2023/09/21 07:17:50;;;;;;;2.70;1.77;;;;;;;;;;5100024;28;20024;-86
2023/09/21 07:20:23;;;;;;;3.45;2.45;;;;;;;;;;5098285;28;20046;-88
2023/09/21 07:22:52;;;;;;;7.00;3.60;;;;;;;;;;5100426;28;20031;-85
2023/09/21 07:25:17;;;;;;;1.92;1.55;;;;;;;;;;5093247;28;20024;-85
2023/09/21 07:27:43;;;;;;;1.58;1.20;;;;;;;;;;5097765;28;20054;-86
2023/09/21 07:30:09;;;;;;;1.95;1.50;;;;;;;;;;5104447;28;20035;-85
2023/09/21 07:32:35;;;;;;;1.10;1.00;;;;;;;;;;5107175;28;20468;-86
2023/09/21 07:35:04;;;;;;;1.45;1.35;;;;;;;;;;5094660;28;20020;-85
2023/09/21 07:37:30;;;;;;;7.30;1.95;;;;;;;;;;5096633;28;20032;-85
2023/09/21 07:39:56;;;;;;;3.65;1.50;;;;;;;;;;5085775;28;20032;-86
2023/09/21 07:42:22;;;;;;;1.73;1.48;;;;;;;;;;5092773;28;20047;-85
2023/09/21 07:44:48;;;;;;;3.10;1.77;;;;;;;;;;5092711;28;20028;-85
2023/09/21 07:47:14;;;;;;;3.78;1.75;;;;;;;;;;5102917;28;20092;-85
2023/09/21 07:49:39;;;;;;;2.25;1.83;;;;;;;;;;5101870;28;20027;-87
2023/09/21 07:52:07;;;;;;;5.78;1.50;;;;;;;;;;5097785;28;20111;-86
2023/09/21 07:54:33;;;;;;;2.92;2.10;;;;;;;;;;5096877;28;20032;-85
2023/09/21 07:56:59;;;;;;;2.00;1.55;;;;;;;;;;5104883;28;20082;-86
2023/09/21 07:59:25;;;;;;;2.17;1.48;;;;;;;;;;5099938;28;20074;-86
2023/09/21 08:01:53;;;;;;;3.05;1.73;;;;;;;;;;5102992;28;20491;-85
2023/09/21 08:04:20;;;;;;;1.58;1.20;;;;;;;;;;5096728;28;20035;-86
2023/09/21 08:06:46;;;;;;;1.50;1.17;;;;;;;;;;5099891;28;20148;-86
2023/09/21 08:09:13;;;;;;;1.98;1.58;;;;;;;;;;5102701;28;20294;-86
2023/09/21 08:11:39;;;;;;;3.17;1.73;;;;;;;;;;5089835;28;20024;-85
2023/09/21 08:14:04;;;;;;;2.13;1.50;;;;;;;;;;5102340;28;20486;-85
2023/09/21 08:16:30;;;;;;;2.83;1.67;;;;;;;;;;5105721;28;20110;-86
2023/09/21 08:18:57;;;;;;;3.28;2.10;;;;;;;;;;5097933;28;20119;-86
2023/09/21 08:21:22;;;;;;;1.45;1.20;;;;;;;;;;5094285;28;20027;-88
2023/09/21 08:23:48;;;;;;;2.38;2.03;;;;;;;;;;5101370;28;20026;-87
2023/09/21 08:26:14;;;;;;;1.90;1.48;;;;;;;;;;5104138;28;20027;-84
2023/09/21 08:28:39;;;;;;;1.90;1.67;;;;;;;;;;5096203;28;20028;-85
2023/09/21 08:31:05;;;;;;;2.50;1.60;;;;;;;;;;5103555;28;20027;-85
2023/09/21 08:33:31;;;;;;;2.72;1.65;;;;;;;;;;5094723;28;20379;-85
2023/09/21 08:35:56;;;;;;;1.70;1.13;;;;;;;;;;5097065;28;20024;-85
2023/09/21 08:38:21;;;;;;;2.13;1.42;;;;;;;;;;5095959;28;20028;-85
2023/09/21 08:40:52;;;;;;;2.05;1.50;;;;;;;;;;5097202;28;20092;-85
2023/09/21 08:43:22;;;;;;;3.22;2.35;;;;;;;;;;5099360;28;20569;-85
2023/09/21 08:45:49;;;;;;;6.00;3.33;;;;;;;;;;5097951;28;20032;-87
2023/09/21 08:48:19;;;;;;;2.42;1.63;;;;;;;;;;5091481;28;20051;-84
2023/09/21 08:50:45;;;;;;;2.80;1.92;;;;;;;;;;5104409;28;20023;-85
2023/09/21 08:53:13;;;;;;;10.98;1.75;;;;;;;;;;5093880;28;20507;-83
2023/09/21 08:55:40;;;;;;;4.13;2.17;;;;;;;;;;5091722;28;20165;-85
2023/09/21 08:58:09;;;;;;;3.60;1.75;;;;;;;;;;5099188;28;20026;-84
2023/09/21 09:00:38;;;;;;;5.25;1.85;;;;;;;;;;5101147;28;20078;-84
2023/09/21 09:03:03;;;;;;;1.58;1.15;;;;;;;;;;5095052;28;20117;-83
2023/09/21 09:05:29;;;;;;;2.67;2.22;;;;;;;;;;5097371;28;20103;-89
2023/09/21 09:07:54;;;;;;;1.95;1.13;;;;;;;;;;5098435;28;20028;-84
2023/09/21 09:10:20;;;;;;;2.55;1.75;;;;;;;;;;5095474;28;20080;-83
2023/09/21 09:12:46;;;;;;;3.60;2.10;;;;;;;;;;5104552;28;20031;-84
2023/09/21 09:15:12;;;;;;;3.13;1.52;;;;;;;;;;5105651;28;20016;-83
2023/09/21 09:17:37;;;;;;;2.92;1.63;;;;;;;;;;5091034;28;20422;-83
2023/09/21 09:20:05;;;;;;;5.70;1.23;;;;;;;;;;5101627;28;20497;-83
2023/09/21 09:22:34;;;;;;;3.25;2.38;;;;;;;;;;5107600;28;20030;-83
2023/09/21 09:25:07;;;;;;;2.35;2.08;;;;;;;;;;5106499;28;20074;-83
2023/09/21 09:27:52;;;;;;;3.95;2.38;;;;;;;;;;5103445;28;20053;-84
2023/09/21 09:30:20;;;;;;;1.60;1.40;;;;;;;;;;5090170;28;20059;-84
2023/09/21 09:32:47;;;;;;;2.47;1.63;;;;;;;;;;5090730;28;20365;-84
2023/09/21 09:35:13;;;;;;;6.60;2.33;;;;;;;;;;5093880;28;20035;-84
2023/09/21 09:37:46;;;;;;;1.90;1.50;;;;;;;;;;5091325;28;20036;-84
2023/09/21 09:40:13;;;;;;;1.40;1.02;;;;;;;;;;5086115;28;20028;-84
2023/09/21 09:42:45;;;;;;;2.60;1.67;;;;;;;;;;5095705;28;20403;-83
2023/09/21 09:45:18;;;;;;;2.63;2.22;;;;;;;;;;5095224;28;20016;-83
2023/09/21 09:47:56;;;;;;;3.40;2.05;;;;;;;;;;5099936;28;21728;-84
2023/09/21 09:50:24;;;;;;;7.47;2.15;;;;;;;;;;5099780;28;20089;-84
2023/09/21 09:52:56;;;;;;;4.88;2.42;;;;;;;;;;5096117;28;20043;-84
2023/09/21 09:55:25;;;;;;;5.15;2.00;;;;;;;;;;5107951;28;20040;-84
2023/09/21 09:57:55;;;;;;;1.35;1.15;;;;;;;;;;5103284;28;20051;-84
2023/09/21 10:00:22;;;;;;;2.38;1.55;;;;;;;;;;5092873;28;20543;-84
2023/09/21 10:02:49;;;;;;;11.40;1.50;;;;;;;;;;5102527;28;20026;-83
2023/09/21 10:05:19;;;;;;;2.90;1.73;;;;;;;;;;5094730;28;20012;-85
2023/09/21 10:07:46;;;;;;;2.85;1.90;;;;;;;;;;5098273;28;20035;-86
2023/09/21 10:10:15;;;;;;;2.75;1.58;;;;;;;;;;5100946;28;20190;-84
2023/09/21 10:12:43;;;;;;;1.80;1.50;;;;;;;;;;5098750;28;20028;-85
2023/09/21 10:15:13;;;;;;;2.47;1.45;;;;;;;;;;5102072;28;20416;-86
2023/09/21 10:17:38;;;;;;;1.33;1.00;;;;;;;;;;5105515;28;20027;-85
2023/09/21 10:20:14;;;;;;;3.10;2.00;;;;;;;;;;5099202;28;20383;-84
2023/09/21 10:22:43;;;;;;;2.78;1.88;;;;;;;;;;5088504;28;20020;-84
2023/09/21 10:25:10;;;;;;;2.55;1.50;;;;;;;;;;5098201;28;20019;-84
2023/09/21 10:27:38;;;;;;;2.95;1.55;;;;;;;;;;5102950;28;20027;-84
2023/09/21 10:30:08;;;;;;;1.33;1.23;;;;;;;;;;5103811;28;20090;-86
2023/09/21 10:32:45;;;;;;;1.60;1.30;;;;;;;;;;5105384;28;20028;-84
2023/09/21 10:35:21;;;;;;;4.20;1.77;;;;;;;;;;5100152;28;20487;-83
2023/09/21 10:37:51;;;;;;;1.95;1.58;;;;;;;;;;5103065;28;20024;-84
2023/09/21 10:40:26;;;;;;;1.88;1.45;;;;;;;;;;5094235;28;20031;-86
2023/09/21 10:42:52;;;;;;;1.95;1.30;;;;;;;;;;5106108;28;20114;-84
2023/09/21 10:45:18;;;;;;;2.60;1.55;;;;;;;;;;5106285;28;20028;-85
2023/09/21 10:47:48;;;;;;;3.17;1.70;;;;;;;;;;5105204;28;20104;-83
2023/09/21 10:50:19;;;;;;;2.55;1.55;;;;;;;;;;5093555;28;20077;-86
2023/09/21 10:52:52;;;;;;;1.83;1.17;;;;;;;;;;5095724;28;20024;-85
2023/09/21 10:55:20;;;;;;;1.60;1.23;;;;;;;;;;5090073;28;20484;-84
2023/09/21 10:57:49;;;;;;;1.65;1.33;;;;;;;;;;5086122;28;20507;-85
2023/09/21 11:00:17;;;;;;;3.28;1.60;;;;;;;;;;5089794;28;20028;-86
2023/09/21 11:02:46;;;;;;;2.10;1.75;;;;;;;;;;5091430;28;20040;-86
2023/09/21 11:05:12;;;;;;;1.47;1.37;;;;;;;;;;5098992;28;20030;-82
2023/09/21 11:07:40;;;;;;;1.20;1.10;;;;;;;;;;5100323;28;20036;-83
2023/09/21 11:10:07;;;;;;;2.88;2.10;;;;;;;;;;5101372;28;20032;-84
2023/09/21 11:12:34;;;;;;;1.77;1.35;;;;;;;;;;5091096;28;20031;-85
2023/09/21 11:15:00;;;;;;;2.55;1.92;;;;;;;;;;5102313;28;20028;-84
2023/09/21 11:17:27;;;;;;;1.73;1.38;;;;;;;;;;5097847;28;20383;-84
2023/09/21 11:19:53;;;;;;;2.78;1.90;;;;;;;;;;5090691;28;20024;-84
2023/09/21 11:22:19;;;;;;;4.85;1.70;;;;;;;;;;5091635;28;20427;-84
2023/09/21 11:24:45;;;;;;;3.88;1.80;;;;;;;;;;5098346;28;20052;-84
2023/09/21 11:27:14;;;;;;;1.77;1.20;;;;;;;;;;5096621;28;20035;-84
2023/09/21 11:29:42;;;;;;;4.45;3.10;;;;;;;;;;5105380;27;20114;-84
2023/09/21 11:32:13;;;;;;;3.42;1.88;;;;;;;;;;5092446;28;20038;-84
2023/09/21 11:34:39;;;;;;;2.75;1.98;;;;;;;;;;5097806;28;20031;-83
2023/09/21 11:37:07;;;;;;;2.45;1.83;;;;;;;;;;5097627;28;20026;-83
2023/09/21 11:39:35;;;;;;;1.33;1.23;;;;;;;;;;5090411;28;20039;-85
2023/09/21 11:42:00;;;;;;;2.50;1.48;;;;;;;;;;5090766;28;20025;-83
2023/09/21 11:44:28;;;;;;;2.72;1.75;;;;;;;;;;5089906;28;20020;-83
2023/09/21 11:46:55;;;;;;;2.10;1.52;;;;;;;;;;5100399;28;20040;-84
2023/09/21 11:49:23;;;;;;;4.28;1.40;;;;;;;;;;5096749;28;20046;-84
2023/09/21 11:51:50;;;;;;;3.13;2.03;;;;;;;;;;5105496;28;20027;-84
2023/09/21 11:54:16;;;;;;;2.42;1.45;;;;;;;;;;5101991;28;20039;-83
2023/09/21 11:56:43;;;;;;;2.20;1.60;;;;;;;;;;5100089;28;20034;-86
2023/09/21 11:59:09;;;;;;;6.50;2.03;;;;;;;;;;5103116;28;20028;-86
2023/09/21 12:01:35;;;;;;;1.95;1.58;;;;;;;;;;5096933;28;20035;-82
2023/09/21 12:04:03;;;;;;;2.60;2.00;;;;;;;;;;5097470;28;20412;-84
2023/09/21 12:06:30;;;;;;;2.10;1.42;;;;;;;;;;5091507;28;20534;-85
2023/09/21 12:08:57;;;;;;;3.47;2.03;;;;;;;;;;5090498;28;20364;-84
2023/09/21 12:11:23;;;;;;;3.53;1.98;;;;;;;;;;5101818;28;20570;-84
2023/09/21 12:13:48;;;;;;;2.92;1.83;;;;;;;;;;5095118;28;20050;-83
2023/09/21 12:16:14;;;;;;;3.47;1.90;;;;;;;;;;5092461;28;20028;-84
2023/09/21 12:18:40;;;;;;;2.45;1.77;;;;;;;;;;5095572;28;20031;-84
2023/09/21 12:21:07;;;;;;;1.58;1.30;;;;;;;;;;5099960;28;20027;-84
2023/09/21 12:23:34;;;;;;;2.05;1.38;;;;;;;;;;5098758;28;20027;-84
2023/09/21 12:26:00;;;;;;;3.75;1.98;;;;;;;;;;5089327;28;20055;-85
2023/09/21 12:28:27;;;;;;;2.60;1.90;;;;;;;;;;5096411;28;20487;-85
2023/09/21 12:30:54;;;;;;;2.60;1.60;;;;;;;;;;5094502;28;20266;-83
2023/09/21 12:33:20;;;;;;;2.67;1.48;;;;;;;;;;5095622;28;20038;-82
2023/09/21 12:35:45;;;;;;;3.30;1.80;;;;;;;;;;5102378;28;20073;-84
2023/09/21 12:38:11;;;;;;;2.90;1.90;;;;;;;;;;5097243;28;20031;-81
2023/09/21 12:40:39;;;;;;;7.18;2.33;;;;;;;;;;5096208;28;20089;-83
2023/09/21 12:43:09;;;;;;;2.67;2.20;;;;;;;;;;5092127;28;20031;-82
2023/09/21 12:45:34;;;;;;;;;;;;;;;;;;5100848;28;20056;-83
2023/09/21 12:48:01;;;;;;;1.98;1.40;;;;;;;;;;5090175;28;20409;-82
2023/09/21 12:50:28;;;;;;;3.83;2.25;;;;;;;;;;5097075;28;20095;-83
2023/09/21 12:52:54;;;;;;;1.85;1.42;;;;;;;;;;5098099;28;20024;-84
2023/09/21 12:55:20;;;;;;;3.20;1.52;;;;;;;;;;5092799;28;20040;-83
2023/09/21 12:57:47;;;;;;;4.03;1.77;;;;;;;;;;5091488;28;20111;-83
2023/09/21 13:00:22;;;;;;;1.77;1.20;;;;;;;;;;5096862;28;20024;-84
2023/09/21 13:02:49;;;;;;;2.17;1.38;;;;;;;;;;5087491;28;20066;-83
2023/09/21 13:05:14;;;;;;;4.38;2.13;;;;;;;;;;5090069;28;20206;-83
2023/09/21 13:07:45;;;;;;;5.65;2.00;;;;;;;;;;5093533;28;20928;-82
2023/09/21 13:10:14;;;;;;;3.17;2.05;;;;;;;;;;5095491;28;20051;-83
2023/09/21 13:12:41;;;;;;;4.50;1.65;;;;;;;;;;5091359;28;20071;-83
2023/09/21 13:15:07;;;;;;;2.10;1.60;;;;;;;;;;5104915;28;20099;-83
2023/09/21 13:17:32;;;;;;;3.13;1.95;;;;;;;;;;5100444;28;20115;-85
2023/09/21 13:19:58;;;;;;;3.42;1.65;;;;;;;;;;5104562;28;20031;-85
2023/09/21 13:22:24;;;;;;;4.07;2.50;;;;;;;;;;5100974;28;20510;-85
2023/09/21 13:24:50;;;;;;;2.95;1.58;;;;;;;;;;5101687;28;20042;-87
2023/09/21 13:27:17;;;;;;;2.45;1.70;;;;;;;;;;5109556;28;20023;-84
2023/09/21 13:29:42;;;;;;;1.95;1.30;;;;;;;;;;5105872;28;20058;-86
2023/09/21 13:32:09;;;;;;;2.95;1.30;;;;;;;;;;5101780;28;20050;-86
2023/09/21 13:34:34;;;;;;;1.83;1.52;;;;;;;;;;5100895;28;20367;-85
2023/09/21 13:37:00;;;;;;;2.45;1.70;;;;;;;;;;5095571;28;20028;-85
2023/09/21 13:39:26;;;;;;;3.40;2.40;;;;;;;;;;5095198;28;20039;-86
2023/09/21 13:41:54;;;;;;;3.30;1.83;;;;;;;;;;5101506;28;20072;-85
2023/09/21 13:44:22;;;;;;;4.28;1.77;;;;;;;;;;5093190;28;20107;-79
2023/09/21 13:46:48;;;;;;;2.38;1.70;;;;;;;;;;5097723;28;20530;-81
2023/09/21 13:49:14;;;;;;;2.97;2.17;;;;;;;;;;5095094;28;20071;-82
2023/09/21 13:51:40;;;;;;;4.50;1.85;;;;;;;;;;5099411;28;20031;-82
2023/09/21 13:54:06;;;;;;;3.85;2.47;;;;;;;;;;5103463;28;20063;-85
2023/09/21 13:56:32;;;;;;;3.85;2.05;;;;;;;;;;5102144;28;20439;-85
2023/09/21 13:58:57;;;;;;;2.72;1.60;;;;;;;;;;5091150;28;20027;-82
2023/09/21 14:01:27;;;;;;;3.28;2.10;;;;;;;;;;5094023;28;20032;-83
2023/09/21 14:03:53;;;;;;;2.80;1.65;;;;;;;;;;5098374;28;20036;-82
2023/09/21 14:06:21;;;;;;;3.95;1.80;;;;;;;;;;5121828;27;20120;-85
2023/09/21 14:08:47;;;;;;;2.45;1.80;;;;;;;;;;5106860;28;20494;-84
2023/09/21 14:11:13;;;;;;;1.90;1.58;;;;;;;;;;5098168;28;20024;-83
2023/09/21 14:13:40;;;;;;;2.28;1.95;;;;;;;;;;5106590;28;20016;-83
2023/09/21 14:16:06;;;;;;;2.33;1.50;;;;;;;;;;5105578;28;20020;-82
2023/09/21 14:18:32;;;;;;;2.05;1.73;;;;;;;;;;5100282;28;20078;-87
2023/09/21 14:20:57;;;;;;;1.98;1.52;;;;;;;;;;5092841;28;20047;-78
2023/09/21 14:23:23;;;;;;;5.07;1.73;;;;;;;;;;5098779;28;20453;-81
2023/09/21 14:25:48;;;;;;;2.28;1.60;;;;;;;;;;5090317;28;20050;-82
2023/09/21 14:28:14;;;;;;;1.98;1.48;;;;;;;;;;5093284;28;20111;-85
2023/09/21 14:30:39;;;;;;;5.10;1.90;;;;;;;;;;5088736;28;20031;-85
2023/09/21 14:33:08;;;;;;;2.13;1.27;;;;;;;;;;5094442;28;20467;-85
2023/09/21 14:35:34;;;;;;;3.05;1.60;;;;;;;;;;5107595;28;20035;-84
2023/09/21 14:38:01;;;;;;;1.55;1.35;;;;;;;;;;5099618;28;20024;-80
2023/09/21 14:43:47;;;;;;;3.17;1.92;;;;;;;;;;5064237;28;20403;-80
2023/09/21 14:46:12;;;;;;;2.72;1.25;;;;;;;;;;5048308;28;20080;-81
2023/09/21 14:48:37;;;;;;;3.90;1.88;;;;;;;;;;5061579;28;20422;-80
2023/09/21 14:51:03;;;;;;;2.50;1.67;;;;;;;;;;5052485;28;20032;-82
2023/09/21 14:53:28;;;;;;;2.78;1.65;;;;;;;;;;5045395;28;20040;-80
2023/09/21 14:55:55;;;;;;;1.85;1.33;;;;;;;;;;5044058;28;20387;-80
2023/09/21 14:58:21;;;;;;;2.55;1.63;;;;;;;;;;5055801;28;20079;-80
2023/09/21 15:00:46;;;;;;;3.50;1.42;;;;;;;;;;5051122;28;20032;-81
2023/09/21 15:03:11;;;;;;;2.40;1.67;;;;;;;;;;5051127;28;20044;-80
2023/09/21 15:05:38;;;;;;;1.45;1.30;;;;;;;;;;5048118;28;20085;-80
2023/09/21 15:08:04;;;;;;;3.28;1.55;;;;;;;;;;5056497;28;20025;-80
2023/09/21 15:10:30;;;;;;;3.30;1.77;;;;;;;;;;5050345;28;20025;-80
2023/09/21 15:12:56;;;;;;;3.15;1.80;;;;;;;;;;5049568;28;20029;-81
2023/09/21 15:15:21;;;;;;;1.95;1.63;;;;;;;;;;5052842;28;20100;-79
2023/09/21 15:17:47;;;;;;;1.85;1.50;;;;;;;;;;5047359;28;20479;-80
2023/09/21 15:20:13;;;;;;;2.67;1.88;;;;;;;;;;5049629;28;20111;-80
2023/09/21 15:22:39;;;;;;;4.43;1.98;;;;;;;;;;5045191;28;20060;-80
2023/09/21 15:25:07;;;;;;;2.08;1.23;;;;;;;;;;5049635;28;20033;-81
2023/09/21 15:27:32;;;;;;;5.05;1.63;;;;;;;;;;5048208;28;20048;-80
2023/09/21 15:29:58;;;;;;;6.43;2.63;;;;;;;;;;5050282;28;20114;-84
2023/09/21 15:32:23;;;;;;;3.40;1.80;;;;;;;;;;5052242;28;20026;-81
2023/09/21 15:34:51;;;;;;;3.20;2.17;;;;;;;;;;5041859;28;20025;-81
2023/09/21 15:37:19;;;;;;;3.58;1.25;;;;;;;;;;5045203;28;20035;-81
2023/09/21 15:39:45;;;;;;;6.55;1.98;;;;;;;;;;5047498;28;20027;-82
2023/09/21 15:42:10;;;;;;;3.40;1.85;;;;;;;;;;5048014;28;20041;-83
2023/09/21 15:44:37;;;;;;;2.65;1.65;;;;;;;;;;5043312;28;20109;-83
2023/09/21 15:47:03;;;;;;;3.45;1.75;;;;;;;;;;5054922;28;20596;-81
2023/09/21 15:49:29;;;;;;;3.60;1.73;;;;;;;;;;5051119;28;20103;-83
2023/09/21 15:51:54;;;;;;;2.70;1.95;;;;;;;;;;5047908;28;20148;-83
2023/09/21 15:54:20;;;;;;;2.80;1.45;;;;;;;;;;5042431;28;20384;-82
2023/09/21 15:56:45;;;;;;;2.20;1.52;;;;;;;;;;5041087;28;20032;-82
2023/09/21 15:59:11;;;;;;;2.15;1.40;;;;;;;;;;5041634;28;20043;-81
2023/09/21 16:01:38;;;;;;;4.45;2.05;;;;;;;;;;5034839;28;20087;-81
2023/09/21 16:04:08;;;;;;;2.10;1.42;;;;;;;;;;5034792;28;20041;-81
2023/09/21 16:06:37;;;;;;;4.30;2.28;;;;;;;;;;5039595;28;20088;-81
2023/09/21 16:09:06;;;;;;;2.05;1.30;;;;;;;;;;5036650;28;20112;-80
2023/09/21 16:11:34;;;;;;;2.70;1.63;;;;;;;;;;5033384;28;20021;-81
2023/09/21 16:14:01;;;;;;;3.33;1.67;;;;;;;;;;5038188;28;20497;-80
2023/09/21 16:16:27;;;;;;;2.92;1.83;;;;;;;;;;5031762;28;20052;-82
2023/09/21 16:18:52;;;;;;;7.40;2.45;;;;;;;;;;5040620;28;20065;-80
2023/09/21 16:21:17;;;;;;;2.55;1.60;;;;;;;;;;5041847;28;20087;-80
2023/09/21 16:23:43;;;;;;;2.15;1.60;;;;;;;;;;5041572;28;20029;-80
2023/09/21 16:26:09;;;;;;;6.13;1.58;;;;;;;;;;5035149;28;20064;-80
2023/09/21 16:28:34;;;;;;;2.58;1.67;;;;;;;;;;5041074;28;20044;-82
2023/09/21 16:31:00;;;;;;;2.67;1.90;;;;;;;;;;5042791;28;20091;-80
2023/09/21 16:33:26;;;;;;;3.75;2.03;;;;;;;;;;5029502;28;20032;-81
2023/09/21 16:35:54;;;;;;;3.05;2.05;;;;;;;;;;5038433;28;20041;-81
2023/09/21 16:38:20;;;;;;;2.55;1.77;;;;;;;;;;5040332;28;20507;-80
2023/09/21 16:40:45;;;;;;;2.72;1.65;;;;;;;;;;5032602;28;20053;-81
2023/09/21 16:43:11;;;;;;;1.70;1.02;;;;;;;;;;5038470;28;20041;-81
2023/09/21 16:45:38;;;;;;;2.80;1.50;;;;;;;;;;5041230;28;20062;-79
2023/09/21 16:48:04;;;;;;;4.32;1.98;;;;;;;;;;5035240;28;20064;-79
2023/09/21 16:50:34;;;;;;;5.50;2.05;;;;;;;;;;5039147;28;20168;-79
2023/09/21 16:53:00;;;;;;;2.58;2.10;;;;;;;;;;5035459;28;20026;-80
2023/09/21 16:55:25;;;;;;;3.15;1.90;;;;;;;;;;5040838;28;20078;-79
2023/09/21 16:57:52;;;;;;;3.00;1.80;;;;;;;;;;5042470;28;20037;-80
2023/09/21 17:00:18;;;;;;;4.38;2.38;;;;;;;;;;5034441;28;20021;-80
2023/09/21 17:02:45;;;;;;;3.63;1.95;;;;;;;;;;5036151;28;20038;-81
2023/09/21 17:05:10;;;;;;;2.90;2.60;;;;;;;;;;5037043;28;20500;-80
2023/09/21 17:07:35;;;;;;;8.02;3.17;;;;;;;;;;5037073;28;20033;-83
2023/09/21 17:10:02;;;;;;;4.15;2.65;;;;;;;;;;5038987;28;20025;-80
2023/09/21 17:12:28;;;;;;;3.65;2.25;;;;;;;;;;5039065;28;20017;-80
2023/09/21 17:14:54;;;;;;;4.25;1.75;;;;;;;;;;5035893;28;20022;-80
2023/09/21 17:17:21;;;;;;;2.38;1.67;;;;;;;;;;5034852;28;20017;-82
2023/09/21 17:19:48;;;;;;;3.33;2.08;;;;;;;;;;5031846;28;20082;-82
2023/09/21 17:22:19;;;;;;;4.07;2.17;;;;;;;;;;5038092;28;20477;-80
2023/09/21 17:24:49;;;;;;;7.45;2.33;;;;;;;;;;5038677;28;20440;-81
2023/09/21 17:27:15;;;;;;;2.83;2.05;;;;;;;;;;5036850;28;20394;-80
2023/09/21 17:29:40;;;;;;;6.53;2.67;;;;;;;;;;5040799;28;20025;-80
2023/09/21 17:32:06;;;;;;;5.18;1.95;;;;;;;;;;5038570;28;20606;-80
2023/09/21 17:34:31;;;;;;;3.80;2.03;;;;;;;;;;5037889;28;20102;-82
2023/09/21 17:36:56;;;;;;;2.25;1.70;;;;;;;;;;5038002;28;20036;-80
2023/09/21 17:39:22;;;;;;;2.25;1.40;;;;;;;;;;5048611;28;20040;-82
2023/09/21 17:41:48;;;;;;;1.90;1.42;;;;;;;;;;5033003;28;20064;-80
2023/09/21 17:44:14;;;;;;;2.60;2.03;;;;;;;;;;5038214;28;20025;-81
2023/09/21 17:46:40;;;;;;;2.78;1.88;;;;;;;;;;5035727;28;20033;-81
2023/09/21 17:49:05;;;;;;;2.75;1.73;;;;;;;;;;5033295;28;20021;-81
